Pep, Texas
Current Conditions -  °F | °C
As of 8:53 PM on Monday 22 Dec 2014 (Local Time) from KLBB Reporting Station
Light Rain Light Rain  
Wind Chill:   Ceiling: 7500
Heat Index:   Visibility: 10mi
Dew Point:   Wind: 14mph
Humidity: 86%   Direction: 40°NE
Pressure: 29.75"   Gusts: NA
Location:  33.81°N, 102.56°W
Report Text: KLBB 230253Z 04012KT 10SM -RA FEW055 BKN075 OVC110 04/02 A2975 RMK AO2 RAE09B30 SLP063 P0000 60004 T00440022 51027
Loading
Personal Weather Stations






























Interactive Weather Map New forecast layout! Learn more

10-Day Weather Forecast

Advertisements
Track Severe Weather on mobile